Strona główna
METAR-TAF:

METAR-TAF

Lotnisko :

Port lotniczy Tallinn

Tallinn, Estonia

Szerokość geograficzna: 59-23N, Długość geograficzna: 024-35E, wysokość: 44 m

Aktualna obserwacja pogody

Raport powstał 38 minut temu, godzina 08:20 UTC
Wiatr 8 kt od północno-północny wschód, zmienny między północ i północny wschód
Temperatura 27°C
Wilgotność 54%
Ciśnienie 1015 hPa
Widzialność 10 km lub więcej
Brak chmur poniżej 1500 m i brak chmur cumulonimbus

METAR: EETN 160820Z 03008KT 350V050 CAVOK 27/17 Q1015 NOSIG

czas: 11:58 (08:58 UTC)

Prognoza

Raport powstał 3 godziny i 28 minut temu, godzina 05:30 UTC
Prognoza ważna od 16 godzina 06 UTC do 17 godzina 06 UTC
Wiatr 10 kt od północny wschód
Widzialność 10 km lub więcej
Rozproszone chmury na wysokości 4500 ft

TAF: EETN 160530Z 1606/1706 05010KT 9999 SCT045

Obserwacja i prognoza pogody dla ponad 4000 lotnisk (raport METAR i TAF).

Dostępne stacje oznaczono żółtymi i czerwonymi punktami na mapie.

Najedź kursorem aby zobaczyć nazwę stacji.

Kliknij aby zobaczyć obserwacje i prognozy pogody.

Aby zmienić mapę: kliknij na zielony przycisk z czarnym krzyżykiem, aby powiększyć; na zielony przycisk z myślnikiem, aby pomniejszyć; na zielone strzałki, aby przejść do map sąsiednich.


METAR-TAF: